Time;durP1;ratioP1;P1;durP2;ratioP2;P2;SDS_P1;SDS_P2;PMS_P1;PMS_P2;Temp;Humidity;BMP_temperature;BMP_pressure;BME280_temperature;BME280_humidity;BME280_pressure;Samples;Min_cycle;Max_cycle;Signal;HPM_P1;HPM_P2
2023/06/26 00:00:48;;;;;;;;;;;20.10;99.90;;;;;;5124889;28;20111;-67
2023/06/26 00:03:15;;;;;;;;;;;20.00;99.90;;;;;;5115783;28;19983;-68
2023/06/26 00:05:43;;;;;;;;;;;20.00;99.90;;;;;;5125386;28;20093;-68
2023/06/26 00:08:09;;;;;;;;;;;20.00;99.90;;;;;;5126569;27;19999;-67
2023/06/26 00:10:36;;;;;;;;;;;19.90;99.90;;;;;;5115982;28;19962;-67
2023/06/26 00:13:03;;;;;;;;;;;19.80;99.90;;;;;;5125102;28;20282;-69
2023/06/26 00:15:31;;;;;;;;;;;19.70;99.90;;;;;;5125209;28;19919;-68
2023/06/26 00:24:05;;;;;;;;;;;19.50;99.90;;;;;;5124932;28;19919;-68
2023/06/26 00:26:32;;;;;;;;;;;19.50;99.90;;;;;;5125167;28;19927;-67
2023/06/26 00:28:59;;;;;;;;;;;19.40;99.90;;;;;;5124198;28;19926;-68
2023/06/26 00:31:25;;;;;;;;;;;19.30;99.90;;;;;;5124272;28;19991;-68
2023/06/26 00:33:52;;;;;;;;;;;19.20;99.90;;;;;;5124872;28;19928;-68
2023/06/26 00:36:18;;;;;;;;;;;19.20;99.90;;;;;;5124619;28;19983;-68
2023/06/26 00:38:45;;;;;;;;;;;19.20;99.90;;;;;;5125183;28;19988;-68
2023/06/26 00:41:13;;;;;;;;;;;19.20;99.90;;;;;;5123683;28;19926;-68
2023/06/26 00:43:40;;;;;;;;;;;19.20;99.90;;;;;;5124677;28;19928;-67
2023/06/26 00:46:09;;;;;;;;;;;19.20;99.90;;;;;;5121843;28;19973;-68
2023/06/26 00:48:36;;;;;;;;;;;19.10;99.90;;;;;;5124654;28;20096;-68
2023/06/26 00:51:02;;;;;;;;;;;19.00;99.90;;;;;;5123737;28;20282;-68
2023/06/26 00:53:29;;;;;;;;;;;18.90;99.90;;;;;;5118408;28;19965;-68
2023/06/26 00:55:56;;;;;;;;;;;18.90;99.90;;;;;;5121806;28;19926;-68
2023/06/26 00:58:25;;;;;;;;;;;18.80;99.90;;;;;;5124440;28;20298;-68
2023/06/26 01:00:52;;;;;;;;;;;18.80;99.90;;;;;;5123197;28;19949;-67
2023/06/26 01:03:19;;;;;;;;;;;18.80;99.90;;;;;;5112503;28;19965;-68
2023/06/26 01:05:49;;;;;;;;;;;18.80;99.90;;;;;;5112152;28;20088;-67
2023/06/26 01:08:16;;;;;;;;;;;18.80;99.90;;;;;;5124593;28;19923;-68
2023/06/26 01:10:43;;;;;;;;;;;18.80;99.90;;;;;;5123950;28;19919;-68
2023/06/26 01:13:09;;;;;;;;;;;18.70;99.90;;;;;;5123896;28;19926;-68
2023/06/26 01:15:38;;;;;;;;;;;18.70;99.90;;;;;;5118744;28;19982;-69
2023/06/26 01:18:05;;;;;;;;;;;18.60;99.90;;;;;;5124177;28;19920;-68
2023/06/26 01:20:32;;;;;;;;;;;18.60;99.90;;;;;;5123727;28;19920;-67
2023/06/26 01:23:04;;;;;;;;;;;18.60;99.90;;;;;;5123695;28;20092;-68
2023/06/26 01:25:38;;;;;;;;;;;18.60;99.90;;;;;;5123886;28;19991;-68
2023/06/26 01:28:07;;;;;;;;;;;18.50;99.90;;;;;;5123777;28;19927;-68
2023/06/26 01:30:34;;;;;;;;;;;18.40;99.90;;;;;;5123064;28;19919;-68
2023/06/26 01:33:02;;;;;;;;;;;18.40;99.90;;;;;;5121946;28;19926;-68
2023/06/26 01:35:31;;;;;;;;;;;18.40;99.90;;;;;;5118379;28;20657;-68
2023/06/26 01:38:11;;;;;;;;;;;18.30;99.90;;;;;;5110891;28;19983;-67
2023/06/26 01:40:38;;;;;;;;;;;18.20;99.90;;;;;;5123465;28;19928;-67
2023/06/26 01:43:07;;;;;;;;;;;18.20;99.90;;;;;;5123720;28;20115;-67
2023/06/26 01:45:34;;;;;;;;;;;18.10;99.90;;;;;;5121280;28;19934;-67
2023/06/26 01:48:02;;;;;;;;;;;18.10;99.90;;;;;;5123536;28;20107;-68
2023/06/26 01:50:30;;;;;;;;;;;18.00;99.90;;;;;;5123197;28;19926;-68
2023/06/26 01:53:02;;;;;;;;;;;18.00;99.90;;;;;;5105270;28;20218;-68
2023/06/26 01:55:35;;;;;;;;;;;18.00;99.90;;;;;;5123693;28;19977;-68
2023/06/26 01:58:02;;;;;;;;;;;17.90;99.90;;;;;;5123741;28;20204;-68
2023/06/26 02:00:31;;;;;;;;;;;17.80;99.90;;;;;;5123242;28;20465;-68
2023/06/26 02:09:06;;;;;;;;;;;17.70;99.90;;;;;;5108886;28;19949;-70
2023/06/26 02:11:32;;;;;;;;;;;17.70;99.90;;;;;;5123116;28;19920;-70
2023/06/26 02:14:01;;;;;;;;;;;17.60;99.90;;;;;;5121178;28;19920;-71
2023/06/26 02:16:29;;;;;;;;;;;17.50;99.90;;;;;;5124616;28;19978;-71
2023/06/26 02:18:57;;;;;;;;;;;17.50;99.90;;;;;;5127912;28;19920;-70
2023/06/26 02:21:24;;;;;;;;;;;17.40;99.90;;;;;;5127069;28;19926;-71
2023/06/26 02:23:50;;;;;;;;;;;17.40;99.90;;;;;;5111172;28;19920;-70
2023/06/26 02:26:17;;;;;;;;;;;17.40;99.90;;;;;;5125986;28;19982;-70
2023/06/26 02:47:12;;;;;;;;;;;17.10;99.90;;;;;;5121906;28;20009;-70
2023/06/26 02:49:38;;;;;;;;;;;17.00;99.90;;;;;;5127345;28;19926;-70
2023/06/26 02:52:05;;;;;;;;;;;17.00;99.90;;;;;;5124519;28;20119;-70
2023/06/26 02:57:56;;;;;;;;;;;17.00;99.90;;;;;;5127108;28;19930;-70
2023/06/26 03:00:23;;;;;;;;;;;16.90;99.90;;;;;;5126615;28;19920;-73
2023/06/26 03:02:51;;;;;;;;;;;16.90;99.90;;;;;;5118969;28;19983;-70
2023/06/26 03:05:18;;;;;;;;;;;16.90;99.90;;;;;;5126291;28;20204;-70
2023/06/26 03:07:44;;;;;;;;;;;16.80;99.90;;;;;;5126847;28;20108;-71
2023/06/26 03:13:26;;;;;;;;;;;16.70;99.90;;;;;;5070973;28;19917;-70
2023/06/26 03:15:53;;;;;;;;;;;16.60;99.90;;;;;;5111224;28;19920;-70
2023/06/26 03:18:20;;;;;;;;;;;16.60;99.90;;;;;;5126399;28;20118;-70
2023/06/26 03:20:48;;;;;;;;;;;16.50;99.90;;;;;;5126017;28;19926;-71
2023/06/26 03:29:19;;;;;;;;;;;16.40;99.90;;;;;;5110872;28;20146;-70
2023/06/26 03:31:46;;;;;;;;;;;16.40;99.90;;;;;;5125858;28;19920;-70
2023/06/26 03:34:14;;;;;;;;;;;16.40;99.90;;;;;;5125977;28;20594;-71
2023/06/26 03:36:41;;;;;;;;;;;16.40;99.90;;;;;;5125780;28;19987;-70
2023/06/26 03:39:08;;;;;;;;;;;16.40;99.90;;;;;;5126437;28;19919;-70
2023/06/26 03:41:36;;;;;;;;;;;16.40;99.90;;;;;;5125701;28;20033;-70
2023/06/26 03:47:39;;;;;;;;;;;16.40;99.90;;;;;;5019139;28;19918;-71
2023/06/26 03:50:07;;;;;;;;;;;16.40;99.90;;;;;;5014214;28;21226;-70
2023/06/26 03:52:34;;;;;;;;;;;16.40;99.90;;;;;;5099882;28;20104;-70
2023/06/26 03:55:02;;;;;;;;;;;16.30;99.90;;;;;;5125799;28;19986;-71
2023/06/26 03:57:29;;;;;;;;;;;16.30;99.90;;;;;;5125812;28;19966;-70
2023/06/26 04:03:04;;;;;;;;;;;16.30;99.90;;;;;;4999892;28;19953;-70
2023/06/26 04:05:32;;;;;;;;;;;16.30;99.90;;;;;;5123449;28;19978;-70
2023/06/26 04:14:09;;;;;;;;;;;16.30;99.90;;;;;;5009281;28;19921;-70
2023/06/26 04:16:36;;;;;;;;;;;16.30;99.90;;;;;;5111464;28;19920;-70
2023/06/26 04:24:53;;;;;;;;;;;16.30;99.90;;;;;;5019889;28;19921;-70
2023/06/26 04:27:19;;;;;;;;;;;16.30;99.90;;;;;;5124908;28;19920;-70
2023/06/26 04:29:46;;;;;;;;;;;16.30;99.90;;;;;;5106925;28;19920;-70
2023/06/26 04:32:13;;;;;;;;;;;16.40;99.90;;;;;;5115635;28;20144;-70
2023/06/26 04:37:54;;;;;;;;;;;16.50;99.90;;;;;;5065885;28;19980;-71
2023/06/26 04:40:22;;;;;;;;;;;16.60;99.90;;;;;;5107559;28;19928;-70
2023/06/26 04:42:49;;;;;;;;;;;16.70;99.90;;;;;;5124701;28;19919;-69
2023/06/26 04:45:16;;;;;;;;;;;16.70;99.90;;;;;;5124450;28;19919;-67
2023/06/26 04:47:42;;;;;;;;;;;16.80;99.90;;;;;;5125000;28;19963;-67
2023/06/26 04:53:12;;;;;;;;;;;17.00;99.90;;;;;;5122776;28;19962;-68
2023/06/26 04:55:40;;;;;;;;;;;17.10;99.90;;;;;;5117474;28;19991;-68
2023/06/26 05:04:13;;;;;;;;;;;17.30;99.90;;;;;;5121997;28;19969;-68
2023/06/26 05:06:39;;;;;;;;;;;17.50;99.90;;;;;;5123875;28;19919;-68
2023/06/26 05:09:06;;;;;;;;;;;17.50;99.90;;;;;;5121960;28;19924;-69
2023/06/26 05:11:34;;;;;;;;;;;17.60;99.90;;;;;;5124099;28;19986;-69
2023/06/26 05:14:01;;;;;;;;;;;17.70;99.90;;;;;;5118962;28;19955;-68
2023/06/26 05:16:27;;;;;;;;;;;17.80;99.90;;;;;;5103743;28;20170;-68
2023/06/26 05:18:55;;;;;;;;;;;17.90;99.90;;;;;;5104066;28;19927;-69
2023/06/26 05:21:21;;;;;;;;;;;18.10;99.90;;;;;;5103068;28;20341;-68
2023/06/26 05:23:49;;;;;;;;;;;18.20;99.90;;;;;;5106550;28;19919;-69
2023/06/26 05:26:16;;;;;;;;;;;18.30;99.90;;;;;;5122073;28;19919;-68
2023/06/26 05:28:48;;;;;;;;;;;18.40;99.90;;;;;;5118952;28;19987;-70
2023/06/26 05:31:15;;;;;;;;;;;18.50;99.90;;;;;;5108548;28;19935;-74
2023/06/26 05:33:44;;;;;;;;;;;18.60;99.90;;;;;;5104812;28;19984;-74
2023/06/26 05:36:13;;;;;;;;;;;18.70;99.90;;;;;;5103708;28;19920;-74
2023/06/26 05:38:40;;;;;;;;;;;18.90;99.90;;;;;;5104054;28;20116;-74
2023/06/26 05:41:06;;;;;;;;;;;19.00;99.90;;;;;;5103588;28;19920;-74
2023/06/26 05:43:34;;;;;;;;;;;19.20;99.90;;;;;;5114381;28;19920;-74
2023/06/26 05:46:05;;;;;;;;;;;19.30;99.90;;;;;;5101392;28;20160;-74
2023/06/26 05:48:31;;;;;;;;;;;19.40;99.90;;;;;;5104187;28;19927;-74
2023/06/26 05:50:58;;;;;;;;;;;19.60;99.90;;;;;;5102641;28;20305;-74
2023/06/26 05:53:25;;;;;;;;;;;19.80;99.90;;;;;;5104399;28;19920;-74
2023/06/26 05:55:52;;;;;;;;;;;19.80;99.90;;;;;;5103890;28;19987;-74
2023/06/26 05:58:20;;;;;;;;;;;20.00;99.90;;;;;;5104285;28;20448;-74
2023/06/26 06:00:47;;;;;;;;;;;20.20;99.90;;;;;;5103435;28;20186;-74
2023/06/26 06:03:15;;;;;;;;;;;20.40;99.90;;;;;;5115070;28;19975;-74
2023/06/26 06:05:42;;;;;;;;;;;20.50;99.90;;;;;;5123869;28;19920;-74
2023/06/26 06:08:08;;;;;;;;;;;20.60;99.90;;;;;;5124333;28;19920;-75
2023/06/26 06:10:35;;;;;;;;;;;20.80;99.90;;;;;;5123268;28;19995;-74
2023/06/26 06:13:01;;;;;;;;;;;20.90;99.90;;;;;;5124387;28;19919;-74
2023/06/26 06:20:33;;;;;;;;;;;21.10;99.90;;;;;;5046295;28;20116;-84
2023/06/26 06:22:59;;;;;;;;;;;21.20;99.90;;;;;;5066745;28;19988;-84
2023/06/26 06:25:26;;;;;;;;;;;21.30;99.90;;;;;;5058317;28;20012;-84
2023/06/26 06:27:53;;;;;;;;;;;21.30;99.90;;;;;;5047513;28;19951;-84
2023/06/26 06:30:19;;;;;;;;;;;21.40;99.90;;;;;;5047704;28;19960;-84
2023/06/26 06:32:50;;;;;;;;;;;21.50;99.90;;;;;;5054047;28;19959;-84
2023/06/26 06:35:17;;;;;;;;;;;21.70;99.90;;;;;;5054580;28;19944;-84
2023/06/26 06:37:45;;;;;;;;;;;21.80;99.90;;;;;;5046852;28;20217;-84
2023/06/26 06:40:12;;;;;;;;;;;21.90;99.90;;;;;;5047233;28;19922;-84
2023/06/26 06:42:38;;;;;;;;;;;22.10;99.90;;;;;;5048285;28;19952;-84
2023/06/26 06:45:06;;;;;;;;;;;22.20;99.90;;;;;;5045869;28;19921;-83
2023/06/26 06:47:33;;;;;;;;;;;22.30;99.90;;;;;;5045782;28;19967;-84
2023/06/26 06:50:07;;;;;;;;;;;22.40;99.90;;;;;;5045947;28;20271;-84
2023/06/26 06:52:34;;;;;;;;;;;22.50;99.90;;;;;;5046019;28;19959;-84
2023/06/26 06:55:05;;;;;;;;;;;22.50;99.90;;;;;;5047112;28;20175;-84
2023/06/26 06:57:35;;;;;;;;;;;22.60;99.90;;;;;;5047025;28;20155;-84
2023/06/26 07:00:02;;;;;;;;;;;22.70;99.90;;;;;;5046663;28;19921;-84
2023/06/26 07:02:29;;;;;;;;;;;22.70;99.90;;;;;;5045813;28;19944;-85
2023/06/26 07:04:56;;;;;;;;;;;22.80;99.90;;;;;;5047068;28;19921;-84
2023/06/26 07:07:24;;;;;;;;;;;22.90;99.90;;;;;;5031841;28;19922;-84
2023/06/26 07:09:51;;;;;;;;;;;23.00;99.90;;;;;;5030752;28;19922;-84
2023/06/26 07:12:19;;;;;;;;;;;23.10;99.90;;;;;;5029330;28;19985;-84
2023/06/26 07:14:45;;;;;;;;;;;23.20;99.90;;;;;;5028706;28;19929;-83
2023/06/26 07:17:12;;;;;;;;;;;23.30;99.90;;;;;;5027693;28;19988;-83
2023/06/26 07:22:42;;;;;;;;;;;23.40;99.90;;;;;;5045962;28;20176;-84
2023/06/26 07:28:14;;;;;;;;;;;23.60;99.90;;;;;;5048761;28;19919;-84
2023/06/26 07:33:08;;;;;;;;;;;23.80;99.90;;;;;;5017122;23;19929;-83
2023/06/26 07:35:35;;;;;;;;;;;23.80;99.90;;;;;;5074051;28;19920;-83
2023/06/26 07:38:01;;;;;;;;;;;23.90;99.90;;;;;;5088873;28;19959;-84
2023/06/26 07:46:36;;;;;;;;;;;24.20;99.90;;;;;;5085802;22;20119;-82
2023/06/26 07:49:02;;;;;;;;;;;24.40;99.90;;;;;;5087557;28;19920;-83
2023/06/26 07:51:40;;;;;;;;;;;24.60;99.90;;;;;;5087496;28;19920;-83
2023/06/26 07:54:07;;;;;;;;;;;24.70;99.90;;;;;;5094387;28;19980;-83
2023/06/26 07:56:36;;;;;;;;;;;24.80;99.90;;;;;;5091383;28;19959;-83
2023/06/26 07:59:04;;;;;;;;;;;24.90;99.90;;;;;;5095130;28;19962;-83
2023/06/26 08:01:30;;;;;;;;;;;25.00;99.90;;;;;;5094895;28;19927;-81
2023/06/26 08:04:00;;;;;;;;;;;25.00;99.90;;;;;;5088033;28;19988;-83
2023/06/26 08:06:26;;;;;;;;;;;25.10;99.90;;;;;;5092738;28;19928;-81
2023/06/26 08:08:53;;;;;;;;;;;25.20;99.90;;;;;;5082287;28;19944;-81
2023/06/26 08:11:20;;;;;;;;;;;25.20;99.90;;;;;;5065691;28;20169;-82
2023/06/26 08:13:56;;;;;;;;;;;25.30;99.90;;;;;;5069666;28;19929;-82
2023/06/26 08:16:22;;;;;;;;;;;25.30;99.90;;;;;;5066409;28;19921;-82
2023/06/26 08:18:49;;;;;;;;;;;25.40;99.90;;;;;;5066137;28;19948;-84
2023/06/26 08:21:17;;;;;;;;;;;25.50;99.90;;;;;;5065601;28;19951;-83
2023/06/26 08:23:44;;;;;;;;;;;25.60;99.90;;;;;;5068244;28;19996;-79
2023/06/26 08:26:11;;;;;;;;;;;25.70;99.90;;;;;;5089928;28;19920;-80
2023/06/26 08:28:46;;;;;;;;;;;25.70;99.90;;;;;;5094879;28;19951;-81
2023/06/26 08:34:20;;;;;;;;;;;25.90;99.90;;;;;;5040955;28;20211;-81
2023/06/26 08:36:51;;;;;;;;;;;26.10;99.90;;;;;;5091995;28;19951;-81
2023/06/26 08:39:18;;;;;;;;;;;26.10;99.90;;;;;;5086032;28;19921;-82
2023/06/26 08:41:45;;;;;;;;;;;26.20;99.90;;;;;;5086912;28;19948;-82
2023/06/26 08:44:12;;;;;;;;;;;26.30;99.90;;;;;;5086256;28;19920;-84
2023/06/26 08:46:39;;;;;;;;;;;26.40;99.90;;;;;;5085665;28;19944;-82
2023/06/26 08:49:10;;;;;;;;;;;26.50;99.90;;;;;;5085355;28;20215;-81
2023/06/26 08:51:38;;;;;;;;;;;26.50;99.90;;;;;;5085002;28;19944;-81
2023/06/26 08:54:13;;;;;;;;;;;26.60;99.90;;;;;;5085042;28;20000;-82
2023/06/26 08:56:42;;;;;;;;;;;26.70;99.90;;;;;;5084931;28;19926;-83
2023/06/26 08:59:10;;;;;;;;;;;26.70;99.90;;;;;;5085154;28;19984;-82
2023/06/26 09:01:56;;;;;;;;;;;26.80;99.90;;;;;;5080204;28;19921;-81
2023/06/26 09:04:23;;;;;;;;;;;26.90;99.90;;;;;;5084870;28;19958;-81
2023/06/26 09:06:50;;;;;;;;;;;26.90;99.90;;;;;;5084590;28;19991;-82
2023/06/26 09:09:16;;;;;;;;;;;27.00;99.90;;;;;;5077797;28;20195;-81
2023/06/26 09:11:44;;;;;;;;;;;27.10;99.90;;;;;;5064356;28;19928;-81
2023/06/26 09:14:12;;;;;;;;;;;27.10;99.90;;;;;;5064485;28;19952;-81
2023/06/26 09:16:42;;;;;;;;;;;27.20;99.90;;;;;;5064232;28;19952;-81
2023/06/26 09:19:11;;;;;;;;;;;27.20;99.20;;;;;;5072862;28;19921;-84
2023/06/26 09:21:38;;;;;;;;;;;27.30;98.50;;;;;;5084260;28;20395;-82
2023/06/26 09:24:05;;;;;;;;;;;27.40;98.60;;;;;;5084179;28;19940;-83
2023/06/26 09:26:32;;;;;;;;;;;27.40;98.70;;;;;;5083152;28;19920;-81
2023/06/26 09:29:06;;;;;;;;;;;27.50;97.90;;;;;;5083515;28;19928;-81
2023/06/26 09:31:33;;;;;;;;;;;27.70;97.50;;;;;;5084476;28;19959;-81
2023/06/26 09:34:14;;;;;;;;;;;27.80;97.20;;;;;;5083690;28;20239;-83
2023/06/26 09:36:42;;;;;;;;;;;27.80;97.20;;;;;;5083606;28;19927;-81
2023/06/26 09:39:10;;;;;;;;;;;27.90;96.90;;;;;;5084059;28;19927;-82
2023/06/26 09:41:37;;;;;;;;;;;28.00;96.90;;;;;;5083842;28;20216;-81
2023/06/26 09:44:07;;;;;;;;;;;28.10;95.80;;;;;;5083879;28;19928;-81
2023/06/26 09:46:34;;;;;;;;;;;28.20;94.90;;;;;;5075665;28;20212;-81
2023/06/26 09:49:02;;;;;;;;;;;28.20;94.90;;;;;;5083743;28;19979;-82
2023/06/26 09:51:30;;;;;;;;;;;28.30;95.30;;;;;;5083609;28;19920;-80
2023/06/26 09:54:05;;;;;;;;;;;28.40;95.00;;;;;;5083980;28;20143;-82
2023/06/26 09:56:32;;;;;;;;;;;28.50;94.70;;;;;;5083373;28;20231;-82
2023/06/26 09:59:00;;;;;;;;;;;28.50;93.60;;;;;;5083934;28;19988;-81
2023/06/26 10:01:29;;;;;;;;;;;28.60;94.00;;;;;;5083545;28;20170;-83
2023/06/26 10:03:56;;;;;;;;;;;28.70;93.80;;;;;;5083399;28;19944;-82
2023/06/26 10:06:25;;;;;;;;;;;28.80;93.50;;;;;;5084915;28;19920;-80
2023/06/26 10:08:52;;;;;;;;;;;28.80;93.20;;;;;;5090139;28;19940;-83
2023/06/26 10:11:22;;;;;;;;;;;28.90;92.90;;;;;;5077501;28;19991;-83
2023/06/26 10:13:58;;;;;;;;;;;29.00;93.10;;;;;;5090710;28;19921;-83
2023/06/26 10:16:36;;;;;;;;;;;29.10;93.10;;;;;;5092327;28;19958;-84
2023/06/26 10:19:18;;;;;;;;;;;29.20;92.50;;;;;;5094813;28;19920;-84
2023/06/26 10:21:45;;;;;;;;;;;29.30;92.40;;;;;;5093274;28;19920;-82
2023/06/26 10:24:13;;;;;;;;;;;29.40;92.50;;;;;;5095605;28;19928;-80
2023/06/26 10:26:43;;;;;;;;;;;29.50;93.00;;;;;;5091718;28;19948;-80
2023/06/26 10:29:10;;;;;;;;;;;29.60;93.30;;;;;;5093284;28;19920;-82
2023/06/26 10:31:40;;;;;;;;;;;29.80;93.00;;;;;;5091778;28;19951;-83
2023/06/26 10:34:10;;;;;;;;;;;29.90;92.20;;;;;;5093582;28;19927;-82
2023/06/26 10:36:37;;;;;;;;;;;29.70;92.10;;;;;;5093052;28;19920;-82
2023/06/26 10:39:06;;;;;;;;;;;29.80;91.90;;;;;;5097678;28;19919;-84
2023/06/26 10:41:37;;;;;;;;;;;29.80;91.50;;;;;;5096359;28;19920;-85
2023/06/26 10:44:21;;;;;;;;;;;29.90;91.30;;;;;;5092382;28;19912;-85
2023/06/26 10:46:53;;;;;;;;;;;30.00;92.00;;;;;;5095094;28;19927;-84
2023/06/26 10:49:27;;;;;;;;;;;30.20;91.50;;;;;;5090402;28;19929;-84
2023/06/26 10:52:12;;;;;;;;;;;30.30;91.00;;;;;;5093124;28;19947;-82
2023/06/26 10:54:47;;;;;;;;;;;30.40;91.00;;;;;;5054277;28;19927;-81
2023/06/26 10:57:24;;;;;;;;;;;30.50;90.90;;;;;;5076509;28;19959;-84
2023/06/26 11:00:09;;;;;;;;;;;30.50;91.20;;;;;;5086890;28;19939;-80
2023/06/26 11:09:18;;;;;;;;;;;30.70;90.00;;;;;;4995374;28;19928;-83
2023/06/26 11:12:07;;;;;;;;;;;30.90;90.40;;;;;;5000720;28;19929;-85
2023/06/26 11:14:34;;;;;;;;;;;31.00;89.40;;;;;;5050662;28;19927;-79
2023/06/26 11:17:05;;;;;;;;;;;31.10;88.80;;;;;;5076844;28;19955;-80
2023/06/26 11:19:31;;;;;;;;;;;31.20;87.90;;;;;;5086332;28;19920;-83
2023/06/26 11:22:05;;;;;;;;;;;31.30;88.30;;;;;;5076605;28;20152;-86
2023/06/26 11:24:33;;;;;;;;;;;31.40;87.20;;;;;;5080901;28;19962;-82
2023/06/26 11:27:05;;;;;;;;;;;31.50;88.00;;;;;;5087185;28;20123;-82
2023/06/26 11:29:36;;;;;;;;;;;31.60;85.40;;;;;;5084421;28;20151;-83
2023/06/26 11:32:13;;;;;;;;;;;31.60;86.90;;;;;;5067501;28;20269;-77
2023/06/26 11:34:42;;;;;;;;;;;31.70;84.60;;;;;;5071207;28;19921;-81
2023/06/26 11:37:09;;;;;;;;;;;31.70;83.90;;;;;;5086452;28;19963;-82
2023/06/26 11:39:37;;;;;;;;;;;31.70;84.10;;;;;;5086342;28;19936;-82
2023/06/26 11:42:05;;;;;;;;;;;31.50;83.50;;;;;;5086900;28;19980;-82
2023/06/26 11:44:32;;;;;;;;;;;31.40;83.70;;;;;;5087678;28;19988;-81
2023/06/26 11:46:59;;;;;;;;;;;31.30;84.00;;;;;;5083024;28;20216;-81
2023/06/26 11:49:30;;;;;;;;;;;31.50;84.20;;;;;;5069312;28;19928;-79
2023/06/26 11:51:56;;;;;;;;;;;31.60;85.10;;;;;;5068624;28;20215;-83
2023/06/26 11:54:27;;;;;;;;;;;31.60;85.10;;;;;;5066629;28;19921;-82
2023/06/26 11:56:56;;;;;;;;;;;31.80;84.90;;;;;;5066297;28;20179;-82
2023/06/26 11:59:25;;;;;;;;;;;31.90;86.70;;;;;;5068720;28;19921;-81
2023/06/26 12:01:52;;;;;;;;;;;31.90;86.40;;;;;;5081281;28;19928;-81
2023/06/26 12:04:20;;;;;;;;;;;31.70;87.00;;;;;;5080653;28;19927;-82
2023/06/26 12:06:48;;;;;;;;;;;31.50;87.40;;;;;;5086855;28;19921;-81
2023/06/26 12:09:15;;;;;;;;;;;31.40;87.50;;;;;;5078639;28;19944;-83
2023/06/26 12:15:00;;;;;;;;;;;31.20;88.40;;;;;;5013290;28;19920;-83
2023/06/26 12:17:26;;;;;;;;;;;31.30;88.60;;;;;;5086779;28;19944;-83
2023/06/26 12:19:53;;;;;;;;;;;31.50;89.00;;;;;;5088852;28;19927;-84
2023/06/26 12:22:21;;;;;;;;;;;31.70;89.10;;;;;;5086685;28;20216;-82
2023/06/26 12:24:48;;;;;;;;;;;32.00;89.80;;;;;;5088865;28;19960;-82
2023/06/26 12:27:15;;;;;;;;;;;32.20;88.60;;;;;;5085851;28;19933;-79
2023/06/26 12:29:43;;;;;;;;;;;32.40;88.80;;;;;;5072766;28;19920;-85
2023/06/26 12:32:12;;;;;;;;;;;32.50;87.70;;;;;;5078370;28;19947;-84
2023/06/26 12:34:39;;;;;;;;;;;32.50;86.50;;;;;;5069987;28;19921;-82
2023/06/26 12:37:06;;;;;;;;;;;32.50;87.20;;;;;;5089846;28;19928;-84
2023/06/26 12:39:46;;;;;;;;;;;32.40;86.90;;;;;;5083153;28;19955;-81
2023/06/26 12:42:14;;;;;;;;;;;32.30;87.50;;;;;;5070833;28;19920;-82
2023/06/26 12:44:41;;;;;;;;;;;32.20;87.90;;;;;;5086268;28;19951;-82
2023/06/26 12:47:08;;;;;;;;;;;32.00;88.50;;;;;;5088299;28;19963;-83
2023/06/26 12:49:37;;;;;;;;;;;31.90;88.40;;;;;;5081109;28;19928;-83
2023/06/26 12:52:04;;;;;;;;;;;31.70;89.20;;;;;;5070667;28;20097;-83
2023/06/26 12:54:31;;;;;;;;;;;31.50;90.10;;;;;;5083188;28;19948;-84
2023/06/26 12:56:58;;;;;;;;;;;31.50;90.50;;;;;;5086812;28;19920;-83
2023/06/26 12:59:25;;;;;;;;;;;31.30;90.50;;;;;;5085544;28;19980;-82
2023/06/26 13:01:52;;;;;;;;;;;31.10;91.20;;;;;;5084986;28;19921;-82
2023/06/26 13:04:18;;;;;;;;;;;31.10;91.00;;;;;;5086316;28;19962;-82
2023/06/26 13:06:46;;;;;;;;;;;31.10;91.70;;;;;;5088074;28;19983;-83
2023/06/26 13:09:13;;;;;;;;;;;31.10;90.60;;;;;;5085465;28;19948;-83
2023/06/26 13:11:40;;;;;;;;;;;31.00;91.30;;;;;;5085265;28;20234;-82
2023/06/26 13:14:06;;;;;;;;;;;31.00;90.80;;;;;;5085149;28;19980;-81
2023/06/26 13:16:39;;;;;;;;;;;30.90;91.20;;;;;;5087564;28;19921;-81
2023/06/26 13:19:09;;;;;;;;;;;31.00;91.30;;;;;;5092478;28;19936;-81
2023/06/26 13:21:35;;;;;;;;;;;31.20;91.10;;;;;;5080607;28;19935;-81
2023/06/26 13:24:04;;;;;;;;;;;31.50;90.90;;;;;;5071946;28;19932;-79
2023/06/26 13:26:31;;;;;;;;;;;31.80;91.00;;;;;;5071201;28;19921;-82
2023/06/26 13:28:58;;;;;;;;;;;32.00;90.30;;;;;;5087017;28;19999;-79
2023/06/26 13:31:25;;;;;;;;;;;32.20;87.50;;;;;;5093043;28;19921;-81
2023/06/26 13:33:52;;;;;;;;;;;32.20;86.30;;;;;;5090600;28;20018;-80
2023/06/26 13:36:19;;;;;;;;;;;32.20;87.70;;;;;;5086991;28;19920;-83
2023/06/26 13:38:46;;;;;;;;;;;32.30;86.70;;;;;;5081722;28;19920;-79
2023/06/26 13:41:21;;;;;;;;;;;32.50;87.70;;;;;;5078422;28;19921;-80
2023/06/26 13:44:02;;;;;;;;;;;32.50;88.80;;;;;;5089153;28;19912;-79
2023/06/26 13:46:29;;;;;;;;;;;32.50;88.80;;;;;;5082058;22;20101;-68
2023/06/26 13:48:55;;;;;;;;;;;32.50;89.60;;;;;;5063376;28;19984;-67
2023/06/26 13:51:22;;;;;;;;;;;32.60;88.40;;;;;;5060609;28;19980;-68
2023/06/26 13:53:49;;;;;;;;;;;32.80;88.30;;;;;;5049970;28;19921;-68
2023/06/26 13:56:17;;;;;;;;;;;32.80;89.10;;;;;;5045880;28;20255;-70
2023/06/26 13:58:43;;;;;;;;;;;32.60;88.90;;;;;;5061974;28;20175;-68
2023/06/26 14:01:10;;;;;;;;;;;32.70;89.80;;;;;;5061525;28;20112;-68
2023/06/26 14:03:37;;;;;;;;;;;32.90;90.30;;;;;;5063240;28;19980;-68
2023/06/26 14:06:04;;;;;;;;;;;32.90;90.30;;;;;;5062064;28;19956;-68
2023/06/26 14:08:30;;;;;;;;;;;32.90;90.00;;;;;;5062478;28;19995;-67
2023/06/26 14:10:57;;;;;;;;;;;32.80;90.50;;;;;;5062802;28;20296;-69
2023/06/26 14:13:25;;;;;;;;;;;32.50;90.90;;;;;;5063085;28;19988;-68
2023/06/26 14:15:52;;;;;;;;;;;32.50;91.60;;;;;;5066207;28;19920;-71
2023/06/26 14:18:19;;;;;;;;;;;32.70;92.20;;;;;;5067240;28;20220;-70
2023/06/26 14:20:45;;;;;;;;;;;32.60;91.60;;;;;;5064552;28;19921;-70
2023/06/26 14:23:12;;;;;;;;;;;32.20;92.10;;;;;;5044752;28;20001;-70
2023/06/26 14:25:39;;;;;;;;;;;31.90;93.00;;;;;;5046241;28;19980;-70
2023/06/26 14:28:05;;;;;;;;;;;31.60;93.40;;;;;;5056203;28;19959;-70
2023/06/26 14:30:33;;;;;;;;;;;31.70;93.80;;;;;;5058865;28;20235;-70
2023/06/26 14:33:00;;;;;;;;;;;31.80;93.50;;;;;;5066343;28;19995;-70
2023/06/26 14:35:26;;;;;;;;;;;31.60;93.80;;;;;;5064194;28;19980;-70
2023/06/26 14:37:53;;;;;;;;;;;31.60;93.80;;;;;;5066674;28;19927;-70
2023/06/26 14:40:20;;;;;;;;;;;31.90;93.80;;;;;;5057383;28;19988;-71
2023/06/26 14:42:46;;;;;;;;;;;31.90;94.10;;;;;;5046823;28;20546;-71
2023/06/26 14:45:13;;;;;;;;;;;31.90;93.70;;;;;;5045080;28;19993;-71
2023/06/26 14:47:41;;;;;;;;;;;32.00;93.60;;;;;;5049208;28;19921;-72
2023/06/26 14:50:09;;;;;;;;;;;31.90;93.80;;;;;;5086460;28;19920;-70
2023/06/26 14:52:35;;;;;;;;;;;31.80;94.40;;;;;;5086637;28;19927;-76
2023/06/26 14:55:04;;;;;;;;;;;31.80;94.10;;;;;;5085537;28;19948;-71
2023/06/26 14:57:31;;;;;;;;;;;31.60;94.70;;;;;;5086057;28;19992;-71
2023/06/26 14:59:58;;;;;;;;;;;31.50;94.90;;;;;;5086484;28;19920;-71
2023/06/26 15:02:24;;;;;;;;;;;31.50;95.40;;;;;;5081777;28;19996;-68
2023/06/26 15:04:52;;;;;;;;;;;31.50;94.70;;;;;;5046132;28;20120;-68
2023/06/26 15:07:19;;;;;;;;;;;31.20;95.10;;;;;;5045706;28;19921;-69
2023/06/26 15:09:45;;;;;;;;;;;31.30;95.40;;;;;;5046457;28;19959;-69
2023/06/26 15:12:12;;;;;;;;;;;31.30;95.40;;;;;;5045921;28;19928;-68
2023/06/26 15:14:39;;;;;;;;;;;31.30;95.20;;;;;;5053605;28;19983;-67
2023/06/26 15:17:05;;;;;;;;;;;31.30;94.70;;;;;;5063831;28;20399;-67
2023/06/26 15:19:32;;;;;;;;;;;31.30;94.50;;;;;;5064604;28;20234;-68
2023/06/26 15:22:00;;;;;;;;;;;31.30;94.40;;;;;;5066055;28;19984;-68
2023/06/26 15:24:27;;;;;;;;;;;31.40;94.10;;;;;;5065010;28;19927;-67
2023/06/26 15:26:53;;;;;;;;;;;31.40;93.80;;;;;;5065239;28;19967;-68
2023/06/26 15:29:20;;;;;;;;;;;31.40;93.70;;;;;;5046190;28;19929;-68
2023/06/26 15:31:46;;;;;;;;;;;31.20;92.80;;;;;;5045826;28;19921;-69
2023/06/26 15:34:13;;;;;;;;;;;31.10;93.10;;;;;;5045811;28;19983;-68
2023/06/26 15:36:40;;;;;;;;;;;31.00;93.20;;;;;;5044827;28;19921;-68
2023/06/26 15:39:08;;;;;;;;;;;31.00;93.10;;;;;;5045962;28;19956;-68
2023/06/26 15:41:36;;;;;;;;;;;30.90;92.50;;;;;;5045845;28;19927;-68
2023/06/26 15:44:03;;;;;;;;;;;30.90;92.60;;;;;;5045588;28;19956;-68
2023/06/26 15:46:30;;;;;;;;;;;30.70;92.80;;;;;;5044350;28;19927;-68
2023/06/26 15:48:56;;;;;;;;;;;30.70;93.10;;;;;;5042992;28;20003;-68
2023/06/26 15:51:23;;;;;;;;;;;30.80;92.90;;;;;;5045282;28;20205;-73
2023/06/26 15:53:49;;;;;;;;;;;30.70;92.00;;;;;;5045482;28;19922;-70
2023/06/26 15:56:18;;;;;;;;;;;30.60;92.30;;;;;;5044926;28;19921;-71
2023/06/26 15:58:46;;;;;;;;;;;30.40;92.30;;;;;;5045684;28;19921;-71
2023/06/26 16:01:12;;;;;;;;;;;30.30;93.00;;;;;;5045554;28;19921;-70
2023/06/26 16:03:39;;;;;;;;;;;30.30;92.30;;;;;;5060051;28;19979;-71
2023/06/26 16:06:06;;;;;;;;;;;30.30;92.50;;;;;;5064614;28;19960;-70
2023/06/26 16:08:32;;;;;;;;;;;30.30;92.50;;;;;;5065221;28;20238;-71